createdAt,value
2018-07-15T00:00:48.031Z,59.30
2018-07-15T00:02:50.032Z,59.40
2018-07-15T00:04:52.018Z,59.30
2018-07-15T00:06:53.985Z,59.40
2018-07-15T00:08:55.942Z,59.40
2018-07-15T00:10:57.936Z,59.40
2018-07-15T00:15:02.157Z,59.50
2018-07-15T00:17:04.204Z,59.50
2018-07-15T00:19:06.199Z,59.50
2018-07-15T00:21:08.162Z,59.50
2018-07-15T00:23:10.171Z,59.50
2018-07-15T00:25:12.128Z,59.40
2018-07-15T00:27:14.109Z,59.50
2018-07-15T00:29:16.095Z,59.50
2018-07-15T00:31:18.068Z,59.50
2018-07-15T00:33:20.058Z,59.60
2018-07-15T00:35:22.058Z,59.50
2018-07-15T00:37:24.008Z,59.40
2018-07-15T00:39:26.024Z,59.40
2018-07-15T00:41:27.991Z,59.50
2018-07-15T00:43:29.958Z,59.40
2018-07-15T00:45:31.964Z,59.40
2018-07-15T00:47:33.926Z,59.40
2018-07-15T00:49:35.889Z,59.30
2018-07-15T00:51:37.885Z,59.40
2018-07-15T00:53:39.860Z,59.30
2018-07-15T00:55:41.821Z,59.30
2018-07-15T00:57:43.820Z,59.40
2018-07-15T00:59:45.783Z,59.30
2018-07-15T01:01:47.777Z,59.30
2018-07-15T01:03:49.769Z,59.30
2018-07-15T01:05:51.731Z,59.20
2018-07-15T01:07:53.696Z,59.20
2018-07-15T01:09:55.713Z,59.30
2018-07-15T01:11:57.775Z,59.40
2018-07-15T01:13:59.759Z,59.30
2018-07-15T01:16:01.768Z,59.40
2018-07-15T01:18:03.724Z,59.40
2018-07-15T01:20:05.707Z,59.40
2018-07-15T01:22:07.726Z,59.30
2018-07-15T01:24:09.691Z,59.40
2018-07-15T01:26:11.667Z,59.30
2018-07-15T01:28:13.664Z,59.30
2018-07-15T01:30:15.632Z,59.30
2018-07-15T01:32:17.588Z,59.30
2018-07-15T01:34:19.596Z,59.30
2018-07-15T01:36:21.577Z,59.30
2018-07-15T01:38:23.547Z,59.20
2018-07-15T01:40:25.526Z,59.30
2018-07-15T01:42:27.484Z,59.10
2018-07-15T01:44:29.468Z,59.10
2018-07-15T01:46:31.477Z,59.80
2018-07-15T01:48:33.449Z,59.10
2018-07-15T01:50:35.429Z,59.00
2018-07-15T01:52:37.422Z,58.90
2018-07-15T01:54:39.394Z,58.90
2018-07-15T01:56:41.392Z,58.80
2018-07-15T01:58:43.364Z,58.80
2018-07-15T02:00:45.330Z,58.80
2018-07-15T02:02:47.293Z,58.80
2018-07-15T02:04:49.298Z,58.80
2018-07-15T02:06:51.256Z,58.50
2018-07-15T02:08:53.226Z,58.70
2018-07-15T02:10:55.215Z,58.70
2018-07-15T02:12:57.198Z,58.60
2018-07-15T02:14:59.132Z,58.90
2018-07-15T02:17:01.204Z,58.60
2018-07-15T02:19:03.407Z,58.60
2018-07-15T02:21:05.381Z,58.60
2018-07-15T02:23:07.354Z,58.60
2018-07-15T02:25:09.324Z,58.60
2018-07-15T02:27:11.305Z,58.60
2018-07-15T02:29:13.332Z,58.70
2018-07-15T02:31:15.324Z,58.70
2018-07-15T02:33:17.281Z,58.70
2018-07-15T02:35:19.284Z,58.70
2018-07-15T02:37:21.245Z,58.80
2018-07-15T02:39:23.234Z,58.70
2018-07-15T02:41:25.222Z,58.70
2018-07-15T02:43:27.186Z,58.70
2018-07-15T02:45:29.145Z,58.60
2018-07-15T02:47:31.141Z,58.70
2018-07-15T02:49:33.097Z,58.70
2018-07-15T02:51:35.085Z,58.70
2018-07-15T02:53:37.347Z,58.70
2018-07-15T02:55:39.310Z,58.70
2018-07-15T02:57:41.293Z,58.70
2018-07-15T02:59:43.274Z,58.70
2018-07-15T03:01:45.229Z,58.70
2018-07-15T03:03:47.202Z,58.70
2018-07-15T03:05:49.187Z,58.70
2018-07-15T03:07:51.160Z,58.70
2018-07-15T03:09:53.137Z,58.70
2018-07-15T03:11:55.111Z,58.70
2018-07-15T03:13:57.062Z,58.70
2018-07-15T03:15:59.029Z,58.70
2018-07-15T03:18:02.025Z,58.70
2018-07-15T03:20:04.000Z,58.70
2018-07-15T03:22:05.963Z,58.70
2018-07-15T03:24:07.951Z,58.80
2018-07-15T03:26:09.965Z,58.80
2018-07-15T03:28:11.914Z,58.80
2018-07-15T03:30:13.877Z,58.80
2018-07-15T03:32:15.844Z,58.80
2018-07-15T03:34:17.823Z,58.80
2018-07-15T03:36:19.787Z,58.80
2018-07-15T03:38:21.743Z,58.90
2018-07-15T03:40:23.781Z,58.90
2018-07-15T03:42:25.747Z,58.90
2018-07-15T03:44:27.690Z,58.80
2018-07-15T03:46:29.667Z,58.90
2018-07-15T03:48:31.636Z,58.80
2018-07-15T03:50:33.596Z,58.90
2018-07-15T03:52:35.589Z,58.90
2018-07-15T03:54:37.566Z,58.90
2018-07-15T03:56:39.529Z,58.80
2018-07-15T03:58:41.518Z,58.80
2018-07-15T04:00:43.536Z,58.90
2018-07-15T04:02:45.435Z,58.80
2018-07-15T04:04:47.424Z,58.70
2018-07-15T04:06:49.389Z,58.90
2018-07-15T04:08:51.393Z,58.80
2018-07-15T04:10:53.558Z,58.70
2018-07-15T04:12:55.539Z,58.70
2018-07-15T04:14:57.482Z,58.70
2018-07-15T04:16:59.453Z,59.20
2018-07-15T04:19:01.429Z,58.80
2018-07-15T04:21:03.385Z,58.70
2018-07-15T04:23:05.381Z,58.80
2018-07-15T04:25:07.345Z,58.70
2018-07-15T04:27:09.311Z,58.70
2018-07-15T04:29:11.274Z,58.70
2018-07-15T04:33:15.479Z,58.80
2018-07-15T04:35:17.550Z,58.80
2018-07-15T04:37:19.511Z,58.80
2018-07-15T04:39:21.488Z,58.80
2018-07-15T04:41:23.464Z,58.80
2018-07-15T04:43:25.422Z,58.70
2018-07-15T04:45:27.384Z,58.70
2018-07-15T04:47:29.365Z,58.80
2018-07-15T04:49:31.330Z,59.00
2018-07-15T04:51:33.304Z,59.00
2018-07-15T04:53:35.288Z,58.90
2018-07-15T04:55:37.246Z,59.00
2018-07-15T04:57:39.230Z,59.00
2018-07-15T04:59:41.202Z,58.80
2018-07-15T05:01:43.158Z,59.00
2018-07-15T05:03:45.138Z,59.00
2018-07-15T05:05:47.097Z,59.10
2018-07-15T05:07:49.054Z,59.10
2018-07-15T05:09:51.055Z,59.10
2018-07-15T05:11:53.074Z,59.10
2018-07-15T05:13:55.040Z,59.20
2018-07-15T05:15:57.032Z,59.20
2018-07-15T05:17:58.996Z,59.10
2018-07-15T05:20:01.055Z,59.80
2018-07-15T05:22:03.004Z,59.10
2018-07-15T05:24:04.972Z,59.10
2018-07-15T05:26:06.934Z,59.40
2018-07-15T05:28:08.914Z,59.10
2018-07-15T05:30:10.968Z,59.10
2018-07-15T05:32:12.956Z,59.20
2018-07-15T05:34:15.018Z,59.10
2018-07-15T05:36:16.962Z,59.20
2018-07-15T05:38:18.945Z,59.20
2018-07-15T05:40:20.909Z,59.00
2018-07-15T05:42:22.894Z,59.00
2018-07-15T05:44:24.973Z,57.30
2018-07-15T05:46:26.864Z,58.20
2018-07-15T05:48:28.832Z,58.90
2018-07-15T05:50:30.801Z,59.70
2018-07-15T05:52:32.749Z,60.50
2018-07-15T05:54:34.750Z,60.50
2018-07-15T05:56:36.728Z,60.50
2018-07-15T05:58:38.689Z,60.90
2018-07-15T06:00:40.678Z,60.90
2018-07-15T06:02:42.647Z,61.00
2018-07-15T06:04:44.968Z,60.50
2018-07-15T06:06:46.940Z,60.90
2018-07-15T06:08:48.906Z,61.50
2018-07-15T06:10:50.964Z,61.70
2018-07-15T06:12:52.847Z,61.70
2018-07-15T06:14:54.797Z,62.70
2018-07-15T06:16:56.764Z,61.80
2018-07-15T06:18:58.749Z,61.70
2018-07-15T06:21:00.695Z,61.50
2018-07-15T06:23:02.660Z,61.70
2018-07-15T06:25:04.622Z,62.30
2018-07-15T06:27:06.598Z,63.10
2018-07-15T06:29:08.548Z,62.40
2018-07-15T06:31:10.548Z,62.60
2018-07-15T06:33:12.504Z,62.60
2018-07-15T06:35:14.482Z,62.80
2018-07-15T06:37:16.473Z,62.80
2018-07-15T06:39:18.432Z,62.70
2018-07-15T06:41:20.402Z,62.80
2018-07-15T06:43:22.385Z,63.30
2018-07-15T06:45:24.338Z,63.20
2018-07-15T06:47:26.301Z,62.20
2018-07-15T06:49:28.275Z,62.40
2018-07-15T06:51:30.238Z,62.70
2018-07-15T06:53:32.205Z,62.80
2018-07-15T06:55:34.163Z,62.70
2018-07-15T06:57:36.135Z,62.70
2018-07-15T07:01:40.348Z,62.30
2018-07-15T07:03:42.288Z,62.30
2018-07-15T07:05:44.251Z,62.40
2018-07-15T07:07:46.256Z,62.00
2018-07-15T07:09:48.208Z,62.00
2018-07-15T07:11:50.152Z,62.40
2018-07-15T07:13:52.137Z,62.20
2018-07-15T07:15:54.098Z,62.10
2018-07-15T07:17:56.075Z,62.20
2018-07-15T07:19:58.071Z,62.00
2018-07-15T07:22:00.036Z,62.40
2018-07-15T07:24:01.991Z,62.30
2018-07-15T07:26:03.987Z,62.20
2018-07-15T07:28:05.940Z,62.60
2018-07-15T07:30:07.952Z,62.20
2018-07-15T07:34:12.154Z,61.30
2018-07-15T07:36:14.133Z,61.10
2018-07-15T07:38:16.106Z,60.90
2018-07-15T07:40:18.055Z,60.60
2018-07-15T07:42:20.036Z,60.90
2018-07-15T07:44:22.002Z,60.00
2018-07-15T07:46:23.965Z,60.40
2018-07-15T07:48:25.947Z,60.00
2018-07-15T07:50:27.926Z,60.30
2018-07-15T07:52:29.894Z,60.10
2018-07-15T07:54:31.846Z,60.00
2018-07-15T07:56:34.106Z,60.00
2018-07-15T07:58:36.083Z,59.70
2018-07-15T08:00:38.049Z,59.80
2018-07-15T08:02:40.023Z,58.70
2018-07-15T08:04:41.993Z,59.30
2018-07-15T08:06:43.941Z,60.10
2018-07-15T08:08:45.915Z,59.60
2018-07-15T08:10:47.889Z,59.50
2018-07-15T08:12:49.846Z,59.40
2018-07-15T08:14:51.831Z,59.50
2018-07-15T08:16:53.782Z,59.20
2018-07-15T08:18:55.759Z,59.30
2018-07-15T08:20:57.745Z,59.10
2018-07-15T08:22:59.714Z,57.60
2018-07-15T08:25:01.692Z,58.30
2018-07-15T08:27:03.654Z,58.90
2018-07-15T08:29:05.632Z,59.10
2018-07-15T08:31:07.600Z,58.90
2018-07-15T08:33:09.608Z,58.90
2018-07-15T08:35:11.568Z,59.00
2018-07-15T08:37:13.540Z,58.90
2018-07-15T08:39:15.542Z,58.90
2018-07-15T08:41:17.505Z,58.80
2018-07-15T08:43:19.472Z,58.70
2018-07-15T08:45:21.448Z,58.60
2018-07-15T08:47:23.467Z,58.60
2018-07-15T08:49:25.444Z,58.50
2018-07-15T08:51:27.393Z,58.50
2018-07-15T08:53:29.386Z,58.50
2018-07-15T08:57:33.592Z,58.50
2018-07-15T08:59:35.561Z,58.40
2018-07-15T09:01:37.528Z,58.40
2018-07-15T09:03:39.537Z,58.40
2018-07-15T09:05:41.508Z,58.30
2018-07-15T09:07:43.472Z,58.30
2018-07-15T09:09:45.446Z,58.30
2018-07-15T09:11:47.426Z,57.80
2018-07-15T09:13:49.385Z,58.20
2018-07-15T09:15:51.385Z,58.00
2018-07-15T09:19:55.556Z,57.90
2018-07-15T09:21:57.567Z,57.90
2018-07-15T09:23:59.598Z,57.90
2018-07-15T09:28:03.817Z,57.90
2018-07-15T09:30:05.776Z,57.50
2018-07-15T09:32:07.738Z,57.20
2018-07-15T09:34:09.724Z,56.80
2018-07-15T09:36:11.690Z,57.20
2018-07-15T09:38:13.672Z,56.70
2018-07-15T09:40:15.666Z,57.40
2018-07-15T09:42:17.647Z,57.50
2018-07-15T09:46:21.879Z,57.00
2018-07-15T09:48:23.853Z,57.00
2018-07-15T09:50:25.829Z,57.10
2018-07-15T09:52:27.816Z,57.10
2018-07-15T09:54:29.801Z,57.00
2018-07-15T09:56:31.774Z,57.00
2018-07-15T09:58:33.760Z,57.00
2018-07-15T10:00:35.719Z,57.30
2018-07-15T10:02:37.692Z,57.40
2018-07-15T10:04:39.756Z,57.00
2018-07-15T10:06:41.686Z,56.90
2018-07-15T10:08:43.660Z,56.40
2018-07-15T10:10:45.681Z,56.80
2018-07-15T10:12:47.624Z,56.50
2018-07-15T10:14:49.583Z,56.80
2018-07-15T10:16:51.588Z,57.10
2018-07-15T10:18:53.619Z,57.10
2018-07-15T10:20:55.524Z,60.20
2018-07-15T10:22:57.516Z,58.40
2018-07-15T10:24:59.496Z,59.20
2018-07-15T10:27:01.458Z,58.80
2018-07-15T10:29:03.458Z,57.90
2018-07-15T10:31:05.439Z,58.20
2018-07-15T10:33:07.422Z,58.00
2018-07-15T10:35:09.424Z,57.40
2018-07-15T10:37:11.407Z,57.30
2018-07-15T10:39:13.375Z,56.90
2018-07-15T10:41:15.361Z,57.10
2018-07-15T10:43:17.383Z,57.00
2018-07-15T10:45:19.339Z,57.00
2018-07-15T10:47:21.319Z,57.00
2018-07-15T10:49:23.281Z,57.00
2018-07-15T10:51:25.267Z,57.10
2018-07-15T10:53:27.268Z,59.60
2018-07-15T10:55:29.948Z,57.00
2018-07-15T10:57:31.920Z,57.40
2018-07-15T10:59:33.914Z,56.90
2018-07-15T11:01:35.902Z,56.70
2018-07-15T11:03:37.884Z,57.10
2018-07-15T11:05:39.887Z,57.80
2018-07-15T11:07:41.935Z,57.70
2018-07-15T11:09:43.890Z,57.70
2018-07-15T11:11:45.873Z,57.40
2018-07-15T11:13:47.846Z,56.70
2018-07-15T11:15:50.770Z,56.70
2018-07-15T11:17:52.811Z,57.60
2018-07-15T11:19:54.795Z,57.50
2018-07-15T11:21:56.752Z,58.20
2018-07-15T11:23:58.760Z,58.10
2018-07-15T11:26:00.754Z,58.40
2018-07-15T11:28:03.052Z,58.50
2018-07-15T11:30:05.043Z,58.30
2018-07-15T11:32:07.005Z,58.10
2018-07-15T11:34:08.973Z,58.00
2018-07-15T11:36:10.982Z,58.20
2018-07-15T11:38:12.968Z,58.00
2018-07-15T11:40:14.929Z,57.10
2018-07-15T11:42:16.898Z,57.40
2018-07-15T11:44:18.858Z,57.40
2018-07-15T11:46:20.845Z,57.50
2018-07-15T11:48:22.870Z,57.70
2018-07-15T11:50:24.844Z,57.60
2018-07-15T11:52:26.808Z,58.30
2018-07-15T11:54:28.844Z,57.50
2018-07-15T11:56:30.784Z,57.50
2018-07-15T11:58:32.755Z,57.50
2018-07-15T12:00:34.742Z,57.60
2018-07-15T12:02:36.711Z,57.60
2018-07-15T12:04:38.666Z,57.50
2018-07-15T12:06:40.654Z,57.70
2018-07-15T12:08:42.624Z,57.60
2018-07-15T12:10:44.603Z,58.00
2018-07-15T12:12:46.883Z,57.60
2018-07-15T12:14:48.854Z,57.40
2018-07-15T12:16:50.804Z,57.40
2018-07-15T12:18:52.794Z,57.50
2018-07-15T12:20:54.764Z,57.50
2018-07-15T12:22:56.736Z,57.10
2018-07-15T12:24:58.729Z,57.10
2018-07-15T12:27:00.715Z,56.90
2018-07-15T12:29:02.690Z,57.10
2018-07-15T12:31:04.687Z,57.20
2018-07-15T12:33:06.631Z,57.20
2018-07-15T12:35:08.598Z,57.00
2018-07-15T12:37:10.613Z,56.90
2018-07-15T12:39:12.569Z,56.90
2018-07-15T12:41:14.618Z,57.00
2018-07-15T12:43:16.601Z,57.00
2018-07-15T12:45:18.581Z,57.00
2018-07-15T12:47:20.541Z,57.00
2018-07-15T12:49:22.532Z,57.00
2018-07-15T12:51:24.528Z,57.00
2018-07-15T12:53:26.472Z,56.80
2018-07-15T12:55:28.471Z,56.70
2018-07-15T12:57:30.433Z,56.80
2018-07-15T12:59:32.410Z,56.70
2018-07-15T13:01:34.400Z,56.90
2018-07-15T13:03:36.364Z,56.90
2018-07-15T13:05:38.316Z,56.90
2018-07-15T13:07:40.285Z,56.80
2018-07-15T13:09:42.265Z,56.80
2018-07-15T13:11:44.425Z,56.70
2018-07-15T13:13:46.421Z,57.20
2018-07-15T13:15:48.395Z,56.60
2018-07-15T13:17:50.353Z,56.40
2018-07-15T13:19:52.360Z,56.40
2018-07-15T13:21:54.342Z,56.80
2018-07-15T13:23:56.317Z,56.10
2018-07-15T13:25:58.292Z,55.90
2018-07-15T13:28:00.268Z,55.30
2018-07-15T13:30:02.242Z,55.40
2018-07-15T13:32:04.238Z,55.70
2018-07-15T13:34:06.200Z,55.10
2018-07-15T13:36:08.169Z,55.30
2018-07-15T13:38:10.160Z,55.60
2018-07-15T13:40:12.123Z,55.20
2018-07-15T13:42:14.111Z,55.30
2018-07-15T13:44:16.115Z,55.50
2018-07-15T13:46:18.087Z,55.20
2018-07-15T13:48:20.049Z,54.60
2018-07-15T13:50:22.035Z,53.70
2018-07-15T13:52:24.031Z,53.90
2018-07-15T13:54:25.988Z,54.20
2018-07-15T13:56:27.981Z,54.40
2018-07-15T13:58:29.957Z,54.50
2018-07-15T14:00:31.911Z,54.40
2018-07-15T14:02:33.921Z,53.40
2018-07-15T14:04:35.907Z,54.80
2018-07-15T14:06:37.879Z,54.10
2018-07-15T14:08:39.898Z,54.30
2018-07-15T14:10:41.863Z,53.90
2018-07-15T14:12:44.191Z,53.20
2018-07-15T14:14:46.160Z,52.60
2018-07-15T14:16:48.235Z,52.80
2018-07-15T14:18:50.168Z,53.30
2018-07-15T14:20:52.152Z,53.30
2018-07-15T14:22:54.140Z,53.70
2018-07-15T14:24:56.106Z,53.70
2018-07-15T14:26:58.105Z,53.80
2018-07-15T14:29:00.078Z,53.70
2018-07-15T14:31:02.030Z,53.70
2018-07-15T14:33:04.028Z,53.10
2018-07-15T14:35:06.006Z,52.90
2018-07-15T14:37:07.960Z,53.10
2018-07-15T14:39:09.921Z,53.20
2018-07-15T14:41:11.900Z,53.30
2018-07-15T14:43:13.872Z,53.70
2018-07-15T14:45:15.845Z,53.90
2018-07-15T14:47:17.819Z,54.20
2018-07-15T14:49:19.793Z,54.20
2018-07-15T14:51:21.780Z,54.20
2018-07-15T14:53:23.746Z,54.30
2018-07-15T14:57:27.949Z,54.50
2018-07-15T14:59:29.911Z,54.20
2018-07-15T15:01:31.889Z,54.30
2018-07-15T15:03:33.878Z,54.20
2018-07-15T15:05:35.848Z,54.10
2018-07-15T15:07:37.827Z,54.20
2018-07-15T15:09:39.804Z,54.40
2018-07-15T15:11:41.795Z,54.50
2018-07-15T15:13:43.761Z,54.40
2018-07-15T15:15:45.777Z,54.50
2018-07-15T15:17:47.741Z,54.70
2018-07-15T15:19:49.716Z,55.00
2018-07-15T15:21:51.729Z,54.80
2018-07-15T15:23:53.682Z,55.10
2018-07-15T15:25:55.675Z,54.90
2018-07-15T15:27:57.666Z,55.10
2018-07-15T15:29:59.650Z,55.30
2018-07-15T15:32:01.610Z,54.90
2018-07-15T15:34:03.608Z,55.20
2018-07-15T15:36:05.582Z,55.20
2018-07-15T15:38:07.576Z,55.20
2018-07-15T15:40:09.551Z,55.10
2018-07-15T15:42:11.514Z,55.40
2018-07-15T15:44:13.525Z,55.20
2018-07-15T15:46:15.493Z,55.50
2018-07-15T15:48:17.471Z,55.10
2018-07-15T15:50:19.454Z,55.30
2018-07-15T15:52:21.444Z,55.20
2018-07-15T15:54:23.399Z,54.40
2018-07-15T15:56:25.398Z,54.50
2018-07-15T15:58:27.381Z,54.60
2018-07-15T16:00:29.358Z,54.80
2018-07-15T16:02:31.351Z,55.10
2018-07-15T16:04:33.333Z,55.30
2018-07-15T16:06:35.296Z,55.30
2018-07-15T16:08:37.283Z,55.10
2018-07-15T16:10:39.243Z,55.20
2018-07-15T16:12:41.249Z,55.20
2018-07-15T16:14:43.226Z,55.50
2018-07-15T16:16:45.264Z,55.30
2018-07-15T16:18:47.233Z,55.20
2018-07-15T16:20:49.215Z,55.30
2018-07-15T16:22:51.175Z,55.30
2018-07-15T16:24:53.154Z,55.20
2018-07-15T16:26:55.119Z,55.20
2018-07-15T16:28:57.095Z,55.30
2018-07-15T16:30:59.097Z,55.30
2018-07-15T16:33:01.058Z,55.00
2018-07-15T16:35:03.066Z,54.90
2018-07-15T16:37:05.034Z,55.10
2018-07-15T16:39:07.012Z,54.90
2018-07-15T16:41:08.994Z,55.10
2018-07-15T16:43:10.972Z,55.00
2018-07-15T16:45:12.958Z,54.80
2018-07-15T16:47:14.945Z,54.70
2018-07-15T16:49:16.915Z,54.60
2018-07-15T16:51:18.899Z,54.60
2018-07-15T16:53:20.889Z,54.20
2018-07-15T16:55:22.866Z,54.50
2018-07-15T16:57:24.846Z,54.60
2018-07-15T16:59:26.838Z,54.40
2018-07-15T17:01:28.878Z,54.50
2018-07-15T17:03:30.816Z,54.50
2018-07-15T17:05:32.810Z,54.00
2018-07-15T17:07:34.790Z,53.90
2018-07-15T17:09:36.761Z,53.70
2018-07-15T17:11:38.758Z,53.70
2018-07-15T17:13:40.736Z,54.00
2018-07-15T17:15:42.704Z,53.60
2018-07-15T17:17:44.694Z,54.20
2018-07-15T17:19:46.666Z,54.50
2018-07-15T17:21:48.662Z,54.70
2018-07-15T17:23:50.648Z,54.90
2018-07-15T17:25:52.612Z,55.00
2018-07-15T17:27:54.647Z,55.00
2018-07-15T17:29:56.625Z,55.30
2018-07-15T17:31:58.609Z,55.40
2018-07-15T17:34:00.586Z,55.40
2018-07-15T17:36:02.576Z,55.50
2018-07-15T17:38:04.578Z,55.50
2018-07-15T17:40:06.636Z,55.60
2018-07-15T17:42:08.591Z,55.70
2018-07-15T17:44:10.578Z,55.70
2018-07-15T17:46:12.564Z,55.80
2018-07-15T17:48:14.563Z,55.80
2018-07-15T17:50:16.530Z,55.90
2018-07-15T17:52:18.533Z,55.90
2018-07-15T17:54:20.526Z,55.80
2018-07-15T17:56:22.511Z,55.80
2018-07-15T17:58:24.532Z,55.90
2018-07-15T18:00:26.471Z,56.10
2018-07-15T18:02:28.442Z,56.10
2018-07-15T18:04:30.440Z,56.10
2018-07-15T18:06:32.446Z,56.20
2018-07-15T18:08:34.427Z,56.20
2018-07-15T18:10:36.409Z,56.20
2018-07-15T18:12:38.387Z,56.30
2018-07-15T18:14:40.393Z,56.30
2018-07-15T18:16:42.383Z,56.40
2018-07-15T18:18:44.367Z,56.30
2018-07-15T18:20:46.509Z,56.40
2018-07-15T18:22:48.331Z,56.40
2018-07-15T18:24:50.334Z,56.50
2018-07-15T18:26:52.353Z,56.50
2018-07-15T18:28:54.335Z,56.70
2018-07-15T18:30:56.303Z,56.60
2018-07-15T18:32:58.283Z,56.50
2018-07-15T18:35:00.276Z,56.70
2018-07-15T18:37:02.275Z,56.70
2018-07-15T18:39:04.358Z,56.80
2018-07-15T18:41:06.259Z,56.80
2018-07-15T18:43:08.245Z,56.90
2018-07-15T18:45:10.224Z,57.00
2018-07-15T18:47:12.208Z,57.00
2018-07-15T18:49:14.198Z,57.00
2018-07-15T18:51:16.174Z,57.10
2018-07-15T18:53:18.153Z,57.10
2018-07-15T18:55:20.130Z,57.80
2018-07-15T18:57:22.111Z,57.20
2018-07-15T19:01:26.341Z,57.20
2018-07-15T19:03:28.308Z,57.30
2018-07-15T19:05:30.441Z,57.20
2018-07-15T19:07:32.412Z,57.30
2018-07-15T19:09:34.423Z,57.30
2018-07-15T19:11:36.409Z,57.40
2018-07-15T19:13:38.385Z,57.70
2018-07-15T19:15:40.353Z,57.50
2018-07-15T19:17:42.360Z,57.50
2018-07-15T19:19:44.356Z,57.30
2018-07-15T19:21:46.343Z,57.60
2018-07-15T19:23:48.326Z,57.50
2018-07-15T19:25:50.303Z,57.70
2018-07-15T19:27:52.285Z,57.70
2018-07-15T19:29:54.287Z,57.60
2018-07-15T19:31:56.282Z,57.80
2018-07-15T19:33:58.266Z,57.80
2018-07-15T19:36:00.269Z,58.00
2018-07-15T19:38:02.264Z,57.80
2018-07-15T19:40:04.290Z,57.90
2018-07-15T19:42:06.294Z,58.00
2018-07-15T19:44:08.270Z,58.00
2018-07-15T19:46:10.236Z,58.00
2018-07-15T19:48:12.232Z,58.00
2018-07-15T19:50:14.223Z,57.90
2018-07-15T19:54:18.430Z,58.10
2018-07-15T19:56:20.422Z,58.20
2018-07-15T19:58:22.421Z,58.20
2018-07-15T20:00:24.475Z,58.20
2018-07-15T20:02:26.433Z,58.20
2018-07-15T20:04:28.403Z,58.20
2018-07-15T20:06:30.401Z,58.30
2018-07-15T20:08:32.368Z,58.30
2018-07-15T20:12:36.607Z,58.40
2018-07-15T20:14:38.580Z,58.40
2018-07-15T20:16:40.594Z,58.50
2018-07-15T20:20:45.119Z,58.60
2018-07-15T20:22:47.029Z,58.50
2018-07-15T20:24:49.034Z,58.50
2018-07-15T20:26:50.998Z,58.50
2018-07-15T20:28:52.993Z,58.50
2018-07-15T20:30:54.990Z,58.60
2018-07-15T20:32:56.965Z,58.70
2018-07-15T20:34:58.935Z,58.70
2018-07-15T20:37:00.898Z,58.70
2018-07-15T20:39:03.122Z,58.70
2018-07-15T20:41:05.097Z,58.20
2018-07-15T20:43:07.105Z,58.80
2018-07-15T20:45:09.091Z,58.80
2018-07-15T20:47:11.056Z,58.80
2018-07-15T20:49:13.108Z,58.80
2018-07-15T20:51:15.106Z,58.90
2018-07-15T20:55:19.335Z,58.70
2018-07-15T20:57:21.306Z,58.80
2018-07-15T20:59:23.276Z,58.80
2018-07-15T21:01:25.284Z,58.90
2018-07-15T21:03:27.254Z,58.80
2018-07-15T21:05:29.246Z,58.70
2018-07-15T21:07:31.252Z,58.80
2018-07-15T21:09:33.232Z,58.80
2018-07-15T21:11:35.194Z,59.00
2018-07-15T21:13:37.197Z,58.20
2018-07-15T21:15:39.178Z,58.70
2018-07-15T21:17:41.164Z,58.90
2018-07-15T21:19:43.162Z,58.90
2018-07-15T21:21:45.150Z,58.90
2018-07-15T21:23:47.112Z,58.90
2018-07-15T21:25:49.126Z,58.90
2018-07-15T21:27:51.094Z,59.00
2018-07-15T21:29:53.095Z,59.00
2018-07-15T21:31:55.094Z,59.10
2018-07-15T21:33:57.061Z,59.10
2018-07-15T21:35:59.054Z,59.10
2018-07-15T21:38:01.062Z,59.20
2018-07-15T21:40:03.019Z,59.10
2018-07-15T21:42:05.008Z,59.10
2018-07-15T21:44:07.067Z,59.10
2018-07-15T21:46:08.985Z,59.20
2018-07-15T21:48:10.963Z,59.20
2018-07-15T21:50:12.940Z,59.20
2018-07-15T21:52:14.909Z,59.20
2018-07-15T21:54:16.895Z,59.30
2018-07-15T21:56:18.887Z,59.20
2018-07-15T21:58:20.867Z,59.20
2018-07-15T22:00:22.857Z,59.20
2018-07-15T22:02:24.823Z,59.30
2018-07-15T22:04:26.797Z,59.30
2018-07-15T22:06:28.788Z,59.30
2018-07-15T22:08:30.771Z,59.40
2018-07-15T22:10:32.760Z,59.40
2018-07-15T22:12:34.739Z,59.30
2018-07-15T22:14:36.718Z,59.30
2018-07-15T22:16:38.698Z,59.30
2018-07-15T22:18:40.696Z,59.40
2018-07-15T22:22:44.885Z,59.40
2018-07-15T22:24:46.907Z,59.30
2018-07-15T22:26:48.917Z,59.40
2018-07-15T22:28:50.895Z,59.30
2018-07-15T22:32:55.127Z,59.40
2018-07-15T22:34:57.092Z,59.40
2018-07-15T22:36:59.096Z,59.40
2018-07-15T22:39:01.113Z,59.40
2018-07-15T22:41:03.066Z,59.40
2018-07-15T22:43:05.044Z,59.30
2018-07-15T22:45:07.026Z,59.40
2018-07-15T22:47:08.994Z,59.40
2018-07-15T22:49:10.982Z,59.40
2018-07-15T22:51:12.959Z,59.40
2018-07-15T22:53:14.944Z,59.40
2018-07-15T22:55:16.927Z,59.50
2018-07-15T22:57:18.916Z,59.50
2018-07-15T22:59:20.874Z,59.50
2018-07-15T23:01:22.855Z,59.50
2018-07-15T23:03:24.811Z,59.50
2018-07-15T23:05:26.783Z,59.50
2018-07-15T23:07:28.755Z,59.50
2018-07-15T23:09:30.718Z,59.50
2018-07-15T23:11:32.689Z,59.50
2018-07-15T23:13:34.696Z,58.90
2018-07-15T23:15:36.657Z,59.50
2018-07-15T23:17:38.642Z,58.90
2018-07-15T23:19:40.604Z,59.50
2018-07-15T23:21:42.608Z,59.50
2018-07-15T23:23:44.583Z,59.50
2018-07-15T23:25:46.553Z,59.50
2018-07-15T23:27:48.527Z,59.50
2018-07-15T23:29:50.546Z,59.50
2018-07-15T23:31:52.518Z,59.50
2018-07-15T23:33:54.481Z,59.50
2018-07-15T23:35:56.468Z,59.50
2018-07-15T23:37:58.446Z,59.50
2018-07-15T23:40:00.437Z,59.50
2018-07-15T23:42:02.403Z,59.50
2018-07-15T23:44:04.376Z,59.50
2018-07-15T23:46:06.366Z,59.40
2018-07-15T23:48:08.348Z,59.50
2018-07-15T23:50:10.326Z,59.60
2018-07-15T23:52:12.289Z,59.60
2018-07-15T23:54:14.264Z,59.60
2018-07-15T23:56:16.236Z,59.80
2018-07-15T23:58:18.232Z,59.90
